»·PEaware :: AAL225 KGEG-CYYJ

AAL225 :: KGEG-CYYJ

FLIGHT INFORMATION

Flight Status: Arrived
Operator:
American Airlines
More flights by this operator :: More flights under this callsign
Pilot: Michael R. (16974)
Aircraft: AIRBUS A320
(A320)
More flights by this aircraft type
Origin: KGEG Spokane Intl
United States
Destination: CYYJ Victoria Intl
Canada
More flights between these airports :: More routes between these airports
Route: +GEG3 TEMPL DISCO DISCO3
File this flight plan on PilotEdge
Remarks:
Altitude:
(Current/Filed)
30,000ft
Speed:
(Current/Filed)
397kts
Departed: 14-Sep-18 11:30 AM
Arrived: 14-Sep-18 12:24 PM
Distance/Time
Traveled:
244nm/0:54
Distance/Time
To Go:
Arrived

Flight Plot

Page will automatically refresh every two minutes.

Flight plan parsing failed; only flown route is shown


Map Options




Map Legend


Flown Route
Filed Route
Departure Airport
Arrival Airport
Navaid (VOR, NDB)
Fix

Horizontal Profiles

Position Reports

Time Latitude Longitude Heading Altitude Ground
Speed
14-Sep-18 11:08 47.624953 -117.535398 297 2363ft 0kts
14-Sep-18 11:09 47.624953 -117.535398 297 2363ft 0kts
14-Sep-18 11:10 47.624953 -117.535398 297 2363ft 0kts
14-Sep-18 11:11 47.624953 -117.535398 297 2363ft 0kts
14-Sep-18 11:12 47.624953 -117.535398 297 2363ft 0kts
14-Sep-18 11:13 47.624953 -117.535398 297 2363ft 0kts
14-Sep-18 11:14 47.624953 -117.535398 297 2363ft 0kts
14-Sep-18 11:15 47.624953 -117.535398 297 2363ft 0kts
14-Sep-18 11:16 47.624953 -117.535398 297 2363ft 0kts
14-Sep-18 11:17 47.624953 -117.535398 297 2363ft 0kts
14-Sep-18 11:18 47.624905 -117.535263 297 2362ft 2kts
14-Sep-18 11:19 47.624625 -117.534475 297 2362ft 2kts
14-Sep-18 11:20 47.624525 -117.533821 225 2362ft 1kts
14-Sep-18 11:21 47.624575 -117.533757 224 2362ft 0kts
14-Sep-18 11:22 47.624574 -117.533757 224 2362ft 0kts
14-Sep-18 11:23 47.624574 -117.533757 224 2362ft 0kts
14-Sep-18 11:24 47.624574 -117.533757 224 2362ft 0kts
14-Sep-18 11:25 47.624574 -117.533757 224 2362ft 0kts
14-Sep-18 11:26 47.624555 -117.533786 224 2362ft 1kts
14-Sep-18 11:27 47.624244 -117.534018 173 2362ft 0kts
14-Sep-18 11:28 47.624698 -117.532130 45 2359ft 17kts
14-Sep-18 11:29 47.628536 -117.526350 44 2350ft 23kts
14-Sep-18 11:30 47.632247 -117.520731 58 2333ft 2kts
14-Sep-18 11:31 47.631440 -117.518900 150 2331ft 13kts
14-Sep-18 11:32 47.619019 -117.536572 224 2388ft 167kts
14-Sep-18 11:33 47.580234 -117.593873 221 5105ft 217kts
14-Sep-18 11:34 47.528936 -117.662610 220 7738ft 271kts
14-Sep-18 11:35 47.472789 -117.738217 229 10990ft 291kts
14-Sep-18 11:36 47.472150 -117.869981 280 12400ft 368kts
14-Sep-18 11:37 47.496778 -118.019321 279 14852ft 379kts
14-Sep-18 11:38 47.522092 -118.172739 279 17059ft 389kts
14-Sep-18 11:39 47.547857 -118.329772 279 19039ft 398kts
14-Sep-18 11:40 47.574044 -118.490796 278 20833ft 406kts
14-Sep-18 11:41 47.605006 -118.651368 279 22416ft 414kts
14-Sep-18 11:42 47.632284 -118.816083 277 24177ft 412kts
14-Sep-18 11:43 47.657134 -118.980490 277 26017ft 409kts
14-Sep-18 11:44 47.681427 -119.144461 277 27696ft 409kts
14-Sep-18 11:45 47.705458 -119.308546 276 29298ft 408kts
14-Sep-18 11:46 47.729638 -119.475545 277 30058ft 425kts
14-Sep-18 11:47 47.762425 -119.647411 281 30065ft 435kts
14-Sep-18 11:48 47.795885 -119.817050 280 30061ft 434kts
14-Sep-18 11:49 47.829560 -119.989104 280 30045ft 433kts
14-Sep-18 11:50 47.862913 -120.161014 280 30041ft 433kts
14-Sep-18 11:51 47.896128 -120.333751 280 30040ft 434kts
14-Sep-18 11:52 47.928966 -120.506094 280 29999ft 435kts
14-Sep-18 11:53 47.961052 -120.676019 280 27860ft 437kts
14-Sep-18 11:54 47.983837 -120.797566 280 26216ft 445kts
14-Sep-18 11:55 48.017191 -120.977013 281 23734ft 449kts
14-Sep-18 11:56 48.049704 -121.153774 282 21123ft 436kts
14-Sep-18 11:57 48.081185 -121.326516 282 19145ft 426kts
14-Sep-18 11:58 48.110758 -121.490230 282 17626ft 418kts
14-Sep-18 11:59 48.140141 -121.654342 282 16097ft 399kts
14-Sep-18 12:00 48.166975 -121.805750 282 14707ft 366kts
14-Sep-18 12:01 48.192604 -121.951277 282 13370ft 360kts
14-Sep-18 12:02 48.217723 -122.095088 282 11892ft 353kts
14-Sep-18 12:03 48.242179 -122.236316 283 10410ft 347kts
14-Sep-18 12:04 48.263867 -122.362845 282 10015ft 286kts
14-Sep-18 12:05 48.283668 -122.478750 283 10021ft 288kts
14-Sep-18 12:06 48.303391 -122.594898 283 10042ft 279kts
14-Sep-18 12:07 48.322086 -122.705977 284 8680ft 278kts
14-Sep-18 12:08 48.341177 -122.819951 284 6785ft 281kts
14-Sep-18 12:09 48.359236 -122.928795 284 5483ft 269kts
14-Sep-18 12:10 48.377367 -123.038449 283 5025ft 271kts
14-Sep-18 12:11 48.395252 -123.147442 282 5016ft 267kts
14-Sep-18 12:12 48.424899 -123.249938 296 5009ft 267kts
14-Sep-18 12:13 48.458436 -123.349096 296 5002ft 265kts
14-Sep-18 12:14 48.491781 -123.448131 296 5000ft 265kts
14-Sep-18 12:15 48.525387 -123.548249 296 4996ft 271kts
14-Sep-18 12:16 48.559403 -123.649904 296 4995ft 272kts
14-Sep-18 12:17 48.592130 -123.747826 295 4996ft 236kts
14-Sep-18 12:18 48.624322 -123.831303 330 4991ft 234kts
14-Sep-18 12:19 48.687028 -123.817556 16 4189ft 240kts
14-Sep-18 12:20 48.709564 -123.743797 103 3883ft 204kts
14-Sep-18 12:21 48.695568 -123.667434 106 3195ft 184kts
14-Sep-18 12:22 48.682741 -123.600887 106 2247ft 138kts
14-Sep-18 12:23 48.672367 -123.546940 106 1534ft 133kts
14-Sep-18 12:24 48.662060 -123.493196 105 823ft 132kts
14-Sep-18 12:25 48.651891 -123.440015 105 133ft 131kts
14-Sep-18 12:26 48.646646 -123.418812 285 78ft 20kts
14-Sep-18 12:27 48.642697 -123.423879 185 70ft 26kts
14-Sep-18 12:28 48.642313 -123.431274 249 72ft 11kts
14-Sep-18 12:29 48.641067 -123.430955 156 72ft 0kts
14-Sep-18 12:30 48.641067 -123.430955 156 72ft 0kts
14-Sep-18 12:31 48.641067 -123.430955 156 72ft 0kts
14-Sep-18 12:32 48.641067 -123.430955 156 72ft 0kts
14-Sep-18 12:33 48.641067 -123.430955 156 72ft 0kts
14-Sep-18 12:34 48.641067 -123.430955 156 72ft 0kts
14-Sep-18 12:35 48.641067 -123.430955 156 72ft 0kts
14-Sep-18 12:36 48.641067 -123.430955 156 72ft 0kts
14-Sep-18 12:37 48.641067 -123.430955 156 72ft 0kts
14-Sep-18 12:38 48.641067 -123.430955 156 72ft 0kts
14-Sep-18 12:39 48.641067 -123.430955 156 72ft 0kts
14-Sep-18 12:40 48.641067 -123.430955 156 72ft 0kts

Navigation Log

Ident Type
Flight plan parsing failed, navigation log unavailable